sensor_id;sensor_type;location;lat;lon;timestamp;P1;durP1;ratioP1;P2;durP2;ratioP2
62102;SDS011;48077;48.104;11.702;2022-08-16T00:00:17;4.72;;;1.95;;
62102;SDS011;48077;48.104;11.702;2022-08-16T00:02:42;3.92;;;1.77;;
62102;SDS011;48077;48.104;11.702;2022-08-16T00:05:07;3.70;;;1.85;;
62102;SDS011;48077;48.104;11.702;2022-08-16T00:07:31;4.28;;;1.90;;
62102;SDS011;48077;48.104;11.702;2022-08-16T00:09:58;5.15;;;2.00;;
62102;SDS011;48077;48.104;11.702;2022-08-16T00:12:22;3.22;;;1.95;;
62102;SDS011;48077;48.104;11.702;2022-08-16T00:14:46;2.88;;;1.70;;
62102;SDS011;48077;48.104;11.702;2022-08-16T00:17:10;5.03;;;2.10;;
62102;SDS011;48077;48.104;11.702;2022-08-16T00:19:34;4.22;;;2.17;;
62102;SDS011;48077;48.104;11.702;2022-08-16T00:21:57;4.10;;;1.80;;
62102;SDS011;48077;48.104;11.702;2022-08-16T00:24:22;3.40;;;1.77;;
62102;SDS011;48077;48.104;11.702;2022-08-16T00:26:48;4.55;;;1.88;;
62102;SDS011;48077;48.104;11.702;2022-08-16T00:29:12;4.45;;;2.00;;
62102;SDS011;48077;48.104;11.702;2022-08-16T00:31:37;4.13;;;2.13;;
62102;SDS011;48077;48.104;11.702;2022-08-16T00:34:01;4.05;;;2.05;;
62102;SDS011;48077;48.104;11.702;2022-08-16T00:36:26;2.70;;;1.63;;
62102;SDS011;48077;48.104;11.702;2022-08-16T00:38:49;5.03;;;2.10;;
62102;SDS011;48077;48.104;11.702;2022-08-16T00:41:13;4.22;;;1.95;;
62102;SDS011;48077;48.104;11.702;2022-08-16T00:43:36;3.00;;;1.70;;
62102;SDS011;48077;48.104;11.702;2022-08-16T00:46:22;4.38;;;2.20;;
62102;SDS011;48077;48.104;11.702;2022-08-16T00:48:51;4.20;;;1.88;;
62102;SDS011;48077;48.104;11.702;2022-08-16T00:51:16;5.47;;;2.13;;
62102;SDS011;48077;48.104;11.702;2022-08-16T00:53:40;2.97;;;1.90;;
62102;SDS011;48077;48.104;11.702;2022-08-16T00:56:05;4.93;;;1.98;;
62102;SDS011;48077;48.104;11.702;2022-08-16T00:58:32;3.75;;;1.88;;
62102;SDS011;48077;48.104;11.702;2022-08-16T01:00:58;4.35;;;1.80;;
62102;SDS011;48077;48.104;11.702;2022-08-16T01:03:23;3.88;;;1.90;;
62102;SDS011;48077;48.104;11.702;2022-08-16T01:05:48;4.75;;;2.10;;
62102;SDS011;48077;48.104;11.702;2022-08-16T01:08:12;6.10;;;2.35;;
62102;SDS011;48077;48.104;11.702;2022-08-16T01:10:38;3.85;;;1.88;;
62102;SDS011;48077;48.104;11.702;2022-08-16T01:13:04;3.80;;;1.85;;
62102;SDS011;48077;48.104;11.702;2022-08-16T01:15:32;3.75;;;2.13;;
62102;SDS011;48077;48.104;11.702;2022-08-16T01:17:58;4.55;;;2.28;;
62102;SDS011;48077;48.104;11.702;2022-08-16T01:20:22;3.95;;;1.75;;
62102;SDS011;48077;48.104;11.702;2022-08-16T01:22:56;3.45;;;1.90;;
62102;SDS011;48077;48.104;11.702;2022-08-16T01:25:28;3.03;;;1.77;;
62102;SDS011;48077;48.104;11.702;2022-08-16T01:27:56;5.00;;;2.10;;
62102;SDS011;48077;48.104;11.702;2022-08-16T01:30:26;3.45;;;1.70;;
62102;SDS011;48077;48.104;11.702;2022-08-16T01:32:57;3.88;;;1.83;;
62102;SDS011;48077;48.104;11.702;2022-08-16T01:35:35;4.03;;;1.70;;
62102;SDS011;48077;48.104;11.702;2022-08-16T01:38:21;3.78;;;1.90;;
62102;SDS011;48077;48.104;11.702;2022-08-16T01:40:45;2.92;;;1.70;;
62102;SDS011;48077;48.104;11.702;2022-08-16T01:43:10;4.05;;;2.00;;
62102;SDS011;48077;48.104;11.702;2022-08-16T01:45:33;3.92;;;1.77;;
62102;SDS011;48077;48.104;11.702;2022-08-16T01:47:57;3.25;;;1.73;;
62102;SDS011;48077;48.104;11.702;2022-08-16T01:50:21;5.55;;;2.28;;
62102;SDS011;48077;48.104;11.702;2022-08-16T01:52:44;3.13;;;1.77;;
62102;SDS011;48077;48.104;11.702;2022-08-16T01:55:08;6.25;;;2.45;;
62102;SDS011;48077;48.104;11.702;2022-08-16T01:57:32;3.83;;;1.90;;
62102;SDS011;48077;48.104;11.702;2022-08-16T01:59:55;3.97;;;1.90;;
62102;SDS011;48077;48.104;11.702;2022-08-16T02:02:19;5.25;;;2.58;;
62102;SDS011;48077;48.104;11.702;2022-08-16T02:04:42;4.40;;;1.98;;
62102;SDS011;48077;48.104;11.702;2022-08-16T02:07:06;4.50;;;2.35;;
62102;SDS011;48077;48.104;11.702;2022-08-16T02:09:32;4.05;;;2.00;;
62102;SDS011;48077;48.104;11.702;2022-08-16T02:11:58;3.80;;;2.08;;
62102;SDS011;48077;48.104;11.702;2022-08-16T02:14:23;4.50;;;2.08;;
62102;SDS011;48077;48.104;11.702;2022-08-16T02:16:48;4.90;;;2.17;;
62102;SDS011;48077;48.104;11.702;2022-08-16T02:19:13;4.03;;;2.10;;
62102;SDS011;48077;48.104;11.702;2022-08-16T02:21:36;4.72;;;2.10;;
62102;SDS011;48077;48.104;11.702;2022-08-16T02:24:00;3.35;;;2.05;;
62102;SDS011;48077;48.104;11.702;2022-08-16T02:26:24;3.92;;;2.03;;
62102;SDS011;48077;48.104;11.702;2022-08-16T02:28:48;4.00;;;2.00;;
62102;SDS011;48077;48.104;11.702;2022-08-16T02:31:12;4.65;;;2.38;;
62102;SDS011;48077;48.104;11.702;2022-08-16T02:33:37;4.07;;;2.13;;
62102;SDS011;48077;48.104;11.702;2022-08-16T02:36:01;3.85;;;2.10;;
62102;SDS011;48077;48.104;11.702;2022-08-16T02:38:26;5.97;;;2.30;;
62102;SDS011;48077;48.104;11.702;2022-08-16T02:40:50;5.18;;;2.10;;
62102;SDS011;48077;48.104;11.702;2022-08-16T02:43:14;5.13;;;2.22;;
62102;SDS011;48077;48.104;11.702;2022-08-16T02:45:37;4.13;;;2.13;;
62102;SDS011;48077;48.104;11.702;2022-08-16T02:48:01;3.67;;;1.98;;
62102;SDS011;48077;48.104;11.702;2022-08-16T02:50:25;3.42;;;1.88;;
62102;SDS011;48077;48.104;11.702;2022-08-16T02:52:49;3.70;;;2.00;;
62102;SDS011;48077;48.104;11.702;2022-08-16T02:55:12;5.35;;;2.30;;
62102;SDS011;48077;48.104;11.702;2022-08-16T02:57:36;4.00;;;2.20;;
62102;SDS011;48077;48.104;11.702;2022-08-16T03:00:00;4.60;;;2.15;;
62102;SDS011;48077;48.104;11.702;2022-08-16T03:02:28;4.05;;;2.00;;
62102;SDS011;48077;48.104;11.702;2022-08-16T03:04:51;5.90;;;2.13;;
62102;SDS011;48077;48.104;11.702;2022-08-16T03:07:15;7.65;;;2.92;;
62102;SDS011;48077;48.104;11.702;2022-08-16T03:09:39;4.07;;;2.05;;
62102;SDS011;48077;48.104;11.702;2022-08-16T03:12:03;3.75;;;1.88;;
62102;SDS011;48077;48.104;11.702;2022-08-16T03:14:27;4.45;;;2.38;;
62102;SDS011;48077;48.104;11.702;2022-08-16T03:16:51;4.47;;;2.03;;
62102;SDS011;48077;48.104;11.702;2022-08-16T03:19:15;5.15;;;2.30;;
62102;SDS011;48077;48.104;11.702;2022-08-16T03:21:39;5.38;;;2.53;;
62102;SDS011;48077;48.104;11.702;2022-08-16T03:24:03;4.20;;;2.00;;
62102;SDS011;48077;48.104;11.702;2022-08-16T03:26:26;5.00;;;2.53;;
62102;SDS011;48077;48.104;11.702;2022-08-16T03:28:49;5.82;;;2.40;;
62102;SDS011;48077;48.104;11.702;2022-08-16T03:31:13;5.53;;;2.53;;
62102;SDS011;48077;48.104;11.702;2022-08-16T03:33:36;4.03;;;2.28;;
62102;SDS011;48077;48.104;11.702;2022-08-16T03:36:00;4.70;;;2.17;;
62102;SDS011;48077;48.104;11.702;2022-08-16T03:38:25;4.97;;;2.38;;
62102;SDS011;48077;48.104;11.702;2022-08-16T03:40:49;6.50;;;2.53;;
62102;SDS011;48077;48.104;11.702;2022-08-16T03:43:13;5.30;;;2.30;;
62102;SDS011;48077;48.104;11.702;2022-08-16T03:45:38;4.65;;;2.33;;
62102;SDS011;48077;48.104;11.702;2022-08-16T03:48:02;5.63;;;2.35;;
62102;SDS011;48077;48.104;11.702;2022-08-16T03:50:27;5.63;;;2.35;;
62102;SDS011;48077;48.104;11.702;2022-08-16T03:52:51;3.38;;;2.08;;
62102;SDS011;48077;48.104;11.702;2022-08-16T03:55:14;5.32;;;2.13;;
62102;SDS011;48077;48.104;11.702;2022-08-16T03:57:38;4.68;;;2.20;;
62102;SDS011;48077;48.104;11.702;2022-08-16T04:00:21;5.32;;;2.50;;
62102;SDS011;48077;48.104;11.702;2022-08-16T04:02:53;3.20;;;1.95;;
62102;SDS011;48077;48.104;11.702;2022-08-16T04:05:17;4.53;;;2.13;;
62102;SDS011;48077;48.104;11.702;2022-08-16T04:07:41;4.72;;;2.15;;
62102;SDS011;48077;48.104;11.702;2022-08-16T04:10:05;6.78;;;2.67;;
62102;SDS011;48077;48.104;11.702;2022-08-16T04:12:30;4.22;;;2.00;;
62102;SDS011;48077;48.104;11.702;2022-08-16T04:14:53;3.15;;;2.00;;
62102;SDS011;48077;48.104;11.702;2022-08-16T04:17:17;4.47;;;2.20;;
62102;SDS011;48077;48.104;11.702;2022-08-16T04:19:40;4.75;;;2.08;;
62102;SDS011;48077;48.104;11.702;2022-08-16T04:22:05;5.13;;;2.40;;
62102;SDS011;48077;48.104;11.702;2022-08-16T04:24:29;5.15;;;2.42;;
62102;SDS011;48077;48.104;11.702;2022-08-16T04:26:52;5.18;;;2.45;;
62102;SDS011;48077;48.104;11.702;2022-08-16T04:29:16;5.70;;;2.60;;
62102;SDS011;48077;48.104;11.702;2022-08-16T04:31:39;4.05;;;2.17;;
62102;SDS011;48077;48.104;11.702;2022-08-16T04:34:03;5.07;;;2.40;;
62102;SDS011;48077;48.104;11.702;2022-08-16T04:36:26;4.95;;;2.20;;
62102;SDS011;48077;48.104;11.702;2022-08-16T04:38:50;6.57;;;2.30;;
62102;SDS011;48077;48.104;11.702;2022-08-16T04:41:13;4.93;;;2.10;;
62102;SDS011;48077;48.104;11.702;2022-08-16T04:43:37;4.30;;;2.13;;
62102;SDS011;48077;48.104;11.702;2022-08-16T04:46:01;4.85;;;2.53;;
62102;SDS011;48077;48.104;11.702;2022-08-16T04:48:24;4.72;;;2.47;;
62102;SDS011;48077;48.104;11.702;2022-08-16T04:50:47;5.72;;;2.40;;
62102;SDS011;48077;48.104;11.702;2022-08-16T04:53:11;5.15;;;2.30;;
62102;SDS011;48077;48.104;11.702;2022-08-16T04:55:34;3.40;;;2.03;;
62102;SDS011;48077;48.104;11.702;2022-08-16T04:57:58;3.70;;;1.90;;
62102;SDS011;48077;48.104;11.702;2022-08-16T05:00:23;5.63;;;2.20;;
62102;SDS011;48077;48.104;11.702;2022-08-16T05:02:49;5.38;;;2.22;;
62102;SDS011;48077;48.104;11.702;2022-08-16T05:05:14;6.15;;;2.10;;
62102;SDS011;48077;48.104;11.702;2022-08-16T05:07:37;5.03;;;2.33;;
62102;SDS011;48077;48.104;11.702;2022-08-16T05:10:03;4.20;;;2.08;;
62102;SDS011;48077;48.104;11.702;2022-08-16T05:12:28;4.25;;;2.00;;
62102;SDS011;48077;48.104;11.702;2022-08-16T05:14:51;3.78;;;1.90;;
62102;SDS011;48077;48.104;11.702;2022-08-16T05:17:14;4.70;;;2.13;;
62102;SDS011;48077;48.104;11.702;2022-08-16T05:19:38;5.70;;;2.95;;
62102;SDS011;48077;48.104;11.702;2022-08-16T05:22:01;3.95;;;2.17;;
62102;SDS011;48077;48.104;11.702;2022-08-16T05:24:25;5.45;;;2.22;;
62102;SDS011;48077;48.104;11.702;2022-08-16T05:26:48;4.18;;;2.05;;
62102;SDS011;48077;48.104;11.702;2022-08-16T05:29:12;6.13;;;2.28;;
62102;SDS011;48077;48.104;11.702;2022-08-16T05:31:35;4.90;;;2.17;;
62102;SDS011;48077;48.104;11.702;2022-08-16T05:33:59;3.75;;;2.20;;
62102;SDS011;48077;48.104;11.702;2022-08-16T05:36:24;4.93;;;2.15;;
62102;SDS011;48077;48.104;11.702;2022-08-16T05:38:47;4.60;;;2.17;;
62102;SDS011;48077;48.104;11.702;2022-08-16T05:41:10;3.60;;;1.95;;
62102;SDS011;48077;48.104;11.702;2022-08-16T05:43:34;2.65;;;1.70;;
62102;SDS011;48077;48.104;11.702;2022-08-16T05:45:58;4.47;;;2.13;;
62102;SDS011;48077;48.104;11.702;2022-08-16T05:48:22;3.08;;;1.88;;
62102;SDS011;48077;48.104;11.702;2022-08-16T05:50:45;3.25;;;2.08;;
62102;SDS011;48077;48.104;11.702;2022-08-16T05:53:09;6.43;;;2.65;;
62102;SDS011;48077;48.104;11.702;2022-08-16T05:55:32;3.28;;;1.80;;
62102;SDS011;48077;48.104;11.702;2022-08-16T05:57:55;3.67;;;1.95;;
62102;SDS011;48077;48.104;11.702;2022-08-16T06:00:19;4.93;;;2.45;;
62102;SDS011;48077;48.104;11.702;2022-08-16T06:02:42;4.00;;;1.98;;
62102;SDS011;48077;48.104;11.702;2022-08-16T06:05:06;4.85;;;2.05;;
62102;SDS011;48077;48.104;11.702;2022-08-16T06:07:30;7.03;;;1.90;;
62102;SDS011;48077;48.104;11.702;2022-08-16T06:09:53;5.93;;;2.30;;
62102;SDS011;48077;48.104;11.702;2022-08-16T06:12:21;5.03;;;2.55;;
62102;SDS011;48077;48.104;11.702;2022-08-16T06:14:45;4.72;;;1.95;;
62102;SDS011;48077;48.104;11.702;2022-08-16T06:17:08;6.10;;;2.50;;
62102;SDS011;48077;48.104;11.702;2022-08-16T06:19:31;4.90;;;2.05;;
62102;SDS011;48077;48.104;11.702;2022-08-16T06:21:55;5.75;;;2.50;;
62102;SDS011;48077;48.104;11.702;2022-08-16T06:24:18;3.78;;;2.10;;
62102;SDS011;48077;48.104;11.702;2022-08-16T06:26:41;5.20;;;1.98;;
62102;SDS011;48077;48.104;11.702;2022-08-16T06:29:05;4.93;;;2.38;;
62102;SDS011;48077;48.104;11.702;2022-08-16T06:31:28;4.97;;;2.00;;
62102;SDS011;48077;48.104;11.702;2022-08-16T06:33:52;5.10;;;2.10;;
62102;SDS011;48077;48.104;11.702;2022-08-16T06:36:16;4.78;;;2.15;;
62102;SDS011;48077;48.104;11.702;2022-08-16T06:38:39;4.75;;;2.25;;
62102;SDS011;48077;48.104;11.702;2022-08-16T06:41:04;4.13;;;2.17;;
62102;SDS011;48077;48.104;11.702;2022-08-16T06:43:28;4.38;;;1.98;;
62102;SDS011;48077;48.104;11.702;2022-08-16T06:45:51;4.43;;;2.17;;
62102;SDS011;48077;48.104;11.702;2022-08-16T06:48:15;3.67;;;2.20;;
62102;SDS011;48077;48.104;11.702;2022-08-16T06:50:38;4.93;;;2.22;;
62102;SDS011;48077;48.104;11.702;2022-08-16T06:53:02;3.25;;;1.70;;
62102;SDS011;48077;48.104;11.702;2022-08-16T06:55:25;4.45;;;2.00;;
62102;SDS011;48077;48.104;11.702;2022-08-16T06:57:51;4.32;;;2.05;;
62102;SDS011;48077;48.104;11.702;2022-08-16T07:00:15;4.68;;;2.10;;
62102;SDS011;48077;48.104;11.702;2022-08-16T07:02:39;4.60;;;2.13;;
62102;SDS011;48077;48.104;11.702;2022-08-16T07:05:04;3.97;;;1.70;;
62102;SDS011;48077;48.104;11.702;2022-08-16T07:07:28;5.15;;;1.98;;
62102;SDS011;48077;48.104;11.702;2022-08-16T07:09:52;3.47;;;1.88;;
62102;SDS011;48077;48.104;11.702;2022-08-16T07:12:15;4.57;;;2.33;;
62102;SDS011;48077;48.104;11.702;2022-08-16T07:14:39;4.28;;;2.33;;
62102;SDS011;48077;48.104;11.702;2022-08-16T07:17:03;5.47;;;2.38;;
62102;SDS011;48077;48.104;11.702;2022-08-16T07:19:28;3.92;;;1.98;;
62102;SDS011;48077;48.104;11.702;2022-08-16T07:21:54;4.93;;;2.20;;
62102;SDS011;48077;48.104;11.702;2022-08-16T07:24:17;4.22;;;2.28;;
62102;SDS011;48077;48.104;11.702;2022-08-16T07:26:40;3.63;;;2.33;;
62102;SDS011;48077;48.104;11.702;2022-08-16T07:29:04;5.68;;;2.53;;
62102;SDS011;48077;48.104;11.702;2022-08-16T07:31:28;4.07;;;2.25;;
62102;SDS011;48077;48.104;11.702;2022-08-16T07:33:51;4.82;;;2.22;;
62102;SDS011;48077;48.104;11.702;2022-08-16T07:36:16;5.68;;;2.78;;
62102;SDS011;48077;48.104;11.702;2022-08-16T07:38:40;4.60;;;2.53;;
62102;SDS011;48077;48.104;11.702;2022-08-16T07:41:05;5.43;;;2.80;;
62102;SDS011;48077;48.104;11.702;2022-08-16T07:43:28;5.35;;;2.50;;
62102;SDS011;48077;48.104;11.702;2022-08-16T07:45:52;3.53;;;2.35;;
62102;SDS011;48077;48.104;11.702;2022-08-16T07:48:16;8.60;;;3.50;;
62102;SDS011;48077;48.104;11.702;2022-08-16T07:50:40;5.32;;;2.80;;
62102;SDS011;48077;48.104;11.702;2022-08-16T07:53:04;6.30;;;3.03;;
62102;SDS011;48077;48.104;11.702;2022-08-16T07:55:28;4.63;;;2.78;;
62102;SDS011;48077;48.104;11.702;2022-08-16T07:57:51;4.65;;;2.65;;
62102;SDS011;48077;48.104;11.702;2022-08-16T08:00:14;4.25;;;2.83;;
62102;SDS011;48077;48.104;11.702;2022-08-16T08:02:39;7.50;;;3.15;;
62102;SDS011;48077;48.104;11.702;2022-08-16T08:05:03;6.13;;;3.10;;
62102;SDS011;48077;48.104;11.702;2022-08-16T08:07:27;4.32;;;2.63;;
62102;SDS011;48077;48.104;11.702;2022-08-16T08:09:51;4.88;;;2.97;;
62102;SDS011;48077;48.104;11.702;2022-08-16T08:12:14;5.35;;;2.92;;
62102;SDS011;48077;48.104;11.702;2022-08-16T08:14:37;5.28;;;2.80;;
62102;SDS011;48077;48.104;11.702;2022-08-16T08:17:01;3.75;;;2.25;;
62102;SDS011;48077;48.104;11.702;2022-08-16T08:19:26;4.57;;;2.58;;
62102;SDS011;48077;48.104;11.702;2022-08-16T08:21:50;5.28;;;2.83;;
62102;SDS011;48077;48.104;11.702;2022-08-16T08:24:15;5.90;;;3.65;;
62102;SDS011;48077;48.104;11.702;2022-08-16T08:26:39;7.47;;;3.55;;
62102;SDS011;48077;48.104;11.702;2022-08-16T08:29:04;4.80;;;3.17;;
62102;SDS011;48077;48.104;11.702;2022-08-16T08:31:28;7.38;;;3.30;;
62102;SDS011;48077;48.104;11.702;2022-08-16T08:33:51;5.57;;;3.00;;
62102;SDS011;48077;48.104;11.702;2022-08-16T08:36:23;6.55;;;3.47;;
62102;SDS011;48077;48.104;11.702;2022-08-16T08:38:55;6.35;;;3.22;;
62102;SDS011;48077;48.104;11.702;2022-08-16T08:41:28;4.82;;;3.20;;
62102;SDS011;48077;48.104;11.702;2022-08-16T08:43:51;6.03;;;3.08;;
62102;SDS011;48077;48.104;11.702;2022-08-16T08:46:15;6.90;;;3.42;;
62102;SDS011;48077;48.104;11.702;2022-08-16T08:48:38;6.03;;;3.28;;
62102;SDS011;48077;48.104;11.702;2022-08-16T08:51:05;5.30;;;3.00;;
62102;SDS011;48077;48.104;11.702;2022-08-16T08:53:30;3.83;;;2.67;;
62102;SDS011;48077;48.104;11.702;2022-08-16T08:55:55;5.50;;;2.85;;
62102;SDS011;48077;48.104;11.702;2022-08-16T08:58:18;3.58;;;2.45;;
62102;SDS011;48077;48.104;11.702;2022-08-16T09:00:42;4.88;;;3.20;;
62102;SDS011;48077;48.104;11.702;2022-08-16T09:09:45;5.95;;;3.33;;
62102;SDS011;48077;48.104;11.702;2022-08-16T09:12:08;6.35;;;2.95;;
62102;SDS011;48077;48.104;11.702;2022-08-16T09:14:34;5.60;;;3.20;;
62102;SDS011;48077;48.104;11.702;2022-08-16T09:17:00;7.60;;;3.70;;
62102;SDS011;48077;48.104;11.702;2022-08-16T09:19:24;5.88;;;3.53;;
62102;SDS011;48077;48.104;11.702;2022-08-16T09:21:47;4.95;;;3.13;;
62102;SDS011;48077;48.104;11.702;2022-08-16T09:24:12;6.32;;;3.83;;
62102;SDS011;48077;48.104;11.702;2022-08-16T09:26:35;5.05;;;3.25;;
62102;SDS011;48077;48.104;11.702;2022-08-16T09:29:02;8.75;;;3.83;;
62102;SDS011;48077;48.104;11.702;2022-08-16T09:31:26;4.10;;;3.10;;
62102;SDS011;48077;48.104;11.702;2022-08-16T09:33:49;8.07;;;3.72;;
62102;SDS011;48077;48.104;11.702;2022-08-16T09:36:14;6.53;;;3.67;;
62102;SDS011;48077;48.104;11.702;2022-08-16T09:38:38;4.18;;;3.13;;
62102;SDS011;48077;48.104;11.702;2022-08-16T09:41:03;4.43;;;3.65;;
62102;SDS011;48077;48.104;11.702;2022-08-16T09:43:29;6.00;;;3.15;;
62102;SDS011;48077;48.104;11.702;2022-08-16T09:45:53;4.85;;;4.05;;
62102;SDS011;48077;48.104;11.702;2022-08-16T09:48:16;8.00;;;3.55;;
62102;SDS011;48077;48.104;11.702;2022-08-16T09:50:41;7.60;;;4.15;;
62102;SDS011;48077;48.104;11.702;2022-08-16T09:53:16;5.78;;;3.90;;
62102;SDS011;48077;48.104;11.702;2022-08-16T09:55:41;4.40;;;3.17;;
62102;SDS011;48077;48.104;11.702;2022-08-16T09:58:10;7.05;;;3.85;;
62102;SDS011;48077;48.104;11.702;2022-08-16T10:00:34;5.10;;;3.65;;
62102;SDS011;48077;48.104;11.702;2022-08-16T10:02:57;6.25;;;3.80;;
62102;SDS011;48077;48.104;11.702;2022-08-16T10:05:21;8.65;;;4.22;;
62102;SDS011;48077;48.104;11.702;2022-08-16T10:07:45;5.30;;;3.80;;
62102;SDS011;48077;48.104;11.702;2022-08-16T10:10:09;5.97;;;3.75;;
62102;SDS011;48077;48.104;11.702;2022-08-16T10:12:32;5.53;;;3.42;;
62102;SDS011;48077;48.104;11.702;2022-08-16T10:15:15;7.03;;;3.50;;
62102;SDS011;48077;48.104;11.702;2022-08-16T10:17:46;5.32;;;3.50;;
62102;SDS011;48077;48.104;11.702;2022-08-16T10:20:11;6.72;;;3.90;;
62102;SDS011;48077;48.104;11.702;2022-08-16T10:22:34;6.55;;;3.55;;
62102;SDS011;48077;48.104;11.702;2022-08-16T10:24:58;4.65;;;3.50;;
62102;SDS011;48077;48.104;11.702;2022-08-16T10:27:22;8.02;;;4.55;;
62102;SDS011;48077;48.104;11.702;2022-08-16T10:29:45;7.35;;;3.90;;
62102;SDS011;48077;48.104;11.702;2022-08-16T10:32:09;7.32;;;3.97;;
62102;SDS011;48077;48.104;11.702;2022-08-16T10:34:32;8.20;;;4.10;;
62102;SDS011;48077;48.104;11.702;2022-08-16T10:36:55;5.30;;;3.70;;
62102;SDS011;48077;48.104;11.702;2022-08-16T10:39:19;10.93;;;4.22;;
62102;SDS011;48077;48.104;11.702;2022-08-16T10:41:42;7.55;;;4.13;;
62102;SDS011;48077;48.104;11.702;2022-08-16T10:44:06;6.10;;;4.32;;
62102;SDS011;48077;48.104;11.702;2022-08-16T10:46:29;5.82;;;3.70;;
62102;SDS011;48077;48.104;11.702;2022-08-16T10:48:53;6.57;;;3.97;;
62102;SDS011;48077;48.104;11.702;2022-08-16T10:51:16;7.20;;;3.88;;
62102;SDS011;48077;48.104;11.702;2022-08-16T10:53:40;5.60;;;3.65;;
62102;SDS011;48077;48.104;11.702;2022-08-16T10:56:04;6.63;;;4.50;;
62102;SDS011;48077;48.104;11.702;2022-08-16T10:58:30;5.75;;;3.88;;
62102;SDS011;48077;48.104;11.702;2022-08-16T11:00:55;5.15;;;3.30;;
62102;SDS011;48077;48.104;11.702;2022-08-16T11:03:18;6.40;;;3.85;;
62102;SDS011;48077;48.104;11.702;2022-08-16T11:05:42;7.68;;;4.68;;
62102;SDS011;48077;48.104;11.702;2022-08-16T11:08:06;9.93;;;4.00;;
62102;SDS011;48077;48.104;11.702;2022-08-16T11:10:31;6.30;;;3.95;;
62102;SDS011;48077;48.104;11.702;2022-08-16T11:12:57;7.80;;;4.90;;
62102;SDS011;48077;48.104;11.702;2022-08-16T11:15:21;7.35;;;4.40;;
62102;SDS011;48077;48.104;11.702;2022-08-16T11:17:45;8.32;;;4.38;;
62102;SDS011;48077;48.104;11.702;2022-08-16T11:20:09;7.80;;;4.65;;
62102;SDS011;48077;48.104;11.702;2022-08-16T11:22:35;5.57;;;5.00;;
62102;SDS011;48077;48.104;11.702;2022-08-16T11:24:59;8.57;;;5.47;;
62102;SDS011;48077;48.104;11.702;2022-08-16T11:27:22;7.53;;;3.92;;
62102;SDS011;48077;48.104;11.702;2022-08-16T11:29:48;4.97;;;3.53;;
62102;SDS011;48077;48.104;11.702;2022-08-16T11:32:14;8.10;;;4.35;;
62102;SDS011;48077;48.104;11.702;2022-08-16T11:34:39;5.85;;;3.80;;
62102;SDS011;48077;48.104;11.702;2022-08-16T11:37:02;8.07;;;5.15;;
62102;SDS011;48077;48.104;11.702;2022-08-16T11:39:27;7.30;;;5.07;;
62102;SDS011;48077;48.104;11.702;2022-08-16T11:41:51;6.40;;;4.20;;
62102;SDS011;48077;48.104;11.702;2022-08-16T11:44:14;9.73;;;5.32;;
62102;SDS011;48077;48.104;11.702;2022-08-16T11:46:38;7.93;;;4.68;;
62102;SDS011;48077;48.104;11.702;2022-08-16T11:49:02;6.57;;;4.32;;
62102;SDS011;48077;48.104;11.702;2022-08-16T11:51:27;6.80;;;4.07;;
62102;SDS011;48077;48.104;11.702;2022-08-16T11:53:50;7.07;;;5.30;;
62102;SDS011;48077;48.104;11.702;2022-08-16T11:56:14;9.73;;;4.95;;
62102;SDS011;48077;48.104;11.702;2022-08-16T11:58:37;7.80;;;4.22;;
62102;SDS011;48077;48.104;11.702;2022-08-16T12:01:01;5.95;;;3.92;;
62102;SDS011;48077;48.104;11.702;2022-08-16T12:03:26;6.75;;;4.22;;
62102;SDS011;48077;48.104;11.702;2022-08-16T12:05:53;7.65;;;4.50;;
62102;SDS011;48077;48.104;11.702;2022-08-16T12:08:18;8.52;;;4.75;;
62102;SDS011;48077;48.104;11.702;2022-08-16T12:10:42;7.68;;;4.18;;
62102;SDS011;48077;48.104;11.702;2022-08-16T12:13:08;7.90;;;4.28;;
62102;SDS011;48077;48.104;11.702;2022-08-16T12:15:32;6.75;;;4.68;;
62102;SDS011;48077;48.104;11.702;2022-08-16T12:17:55;5.45;;;3.78;;
62102;SDS011;48077;48.104;11.702;2022-08-16T12:20:20;7.00;;;4.05;;
62102;SDS011;48077;48.104;11.702;2022-08-16T12:22:47;6.72;;;4.10;;
62102;SDS011;48077;48.104;11.702;2022-08-16T12:25:14;6.28;;;4.13;;
62102;SDS011;48077;48.104;11.702;2022-08-16T12:27:38;5.43;;;3.92;;
62102;SDS011;48077;48.104;11.702;2022-08-16T12:30:03;8.75;;;5.47;;
62102;SDS011;48077;48.104;11.702;2022-08-16T12:32:27;6.20;;;5.20;;
62102;SDS011;48077;48.104;11.702;2022-08-16T12:34:51;6.13;;;3.95;;
62102;SDS011;48077;48.104;11.702;2022-08-16T12:37:14;5.70;;;3.70;;
62102;SDS011;48077;48.104;11.702;2022-08-16T12:39:38;7.82;;;4.47;;
62102;SDS011;48077;48.104;11.702;2022-08-16T12:42:02;9.48;;;4.63;;
62102;SDS011;48077;48.104;11.702;2022-08-16T12:44:25;6.55;;;5.32;;
62102;SDS011;48077;48.104;11.702;2022-08-16T12:46:49;7.40;;;4.45;;
62102;SDS011;48077;48.104;11.702;2022-08-16T12:49:32;8.65;;;5.03;;
62102;SDS011;48077;48.104;11.702;2022-08-16T12:51:56;7.80;;;4.82;;
62102;SDS011;48077;48.104;11.702;2022-08-16T12:54:19;9.43;;;5.30;;
62102;SDS011;48077;48.104;11.702;2022-08-16T12:56:43;7.55;;;4.75;;
62102;SDS011;48077;48.104;11.702;2022-08-16T12:59:08;6.55;;;4.70;;
62102;SDS011;48077;48.104;11.702;2022-08-16T13:01:34;6.93;;;4.43;;
62102;SDS011;48077;48.104;11.702;2022-08-16T13:03:58;9.10;;;5.43;;
62102;SDS011;48077;48.104;11.702;2022-08-16T13:06:24;6.00;;;4.20;;
62102;SDS011;48077;48.104;11.702;2022-08-16T13:08:48;5.95;;;4.28;;
62102;SDS011;48077;48.104;11.702;2022-08-16T13:11:12;6.55;;;4.63;;
62102;SDS011;48077;48.104;11.702;2022-08-16T13:13:37;8.02;;;4.82;;
62102;SDS011;48077;48.104;11.702;2022-08-16T13:16:02;5.88;;;4.32;;
62102;SDS011;48077;48.104;11.702;2022-08-16T13:18:27;8.18;;;4.47;;
62102;SDS011;48077;48.104;11.702;2022-08-16T13:20:52;6.78;;;4.70;;
62102;SDS011;48077;48.104;11.702;2022-08-16T13:23:15;6.72;;;4.90;;
62102;SDS011;48077;48.104;11.702;2022-08-16T13:25:40;7.70;;;4.53;;
62102;SDS011;48077;48.104;11.702;2022-08-16T13:28:06;12.63;;;5.95;;
62102;SDS011;48077;48.104;11.702;2022-08-16T13:30:31;6.63;;;4.50;;
62102;SDS011;48077;48.104;11.702;2022-08-16T13:32:56;7.07;;;4.97;;
62102;SDS011;48077;48.104;11.702;2022-08-16T13:35:21;9.70;;;5.82;;
62102;SDS011;48077;48.104;11.702;2022-08-16T13:37:45;8.15;;;5.05;;
62102;SDS011;48077;48.104;11.702;2022-08-16T13:40:08;7.57;;;5.28;;
62102;SDS011;48077;48.104;11.702;2022-08-16T13:42:32;8.65;;;5.70;;
62102;SDS011;48077;48.104;11.702;2022-08-16T13:44:56;8.57;;;5.07;;
62102;SDS011;48077;48.104;11.702;2022-08-16T13:47:20;10.75;;;5.13;;
62102;SDS011;48077;48.104;11.702;2022-08-16T13:49:43;11.35;;;5.80;;
62102;SDS011;48077;48.104;11.702;2022-08-16T13:52:08;13.45;;;7.20;;
62102;SDS011;48077;48.104;11.702;2022-08-16T13:54:32;11.90;;;6.68;;
62102;SDS011;48077;48.104;11.702;2022-08-16T13:56:56;11.40;;;5.53;;
62102;SDS011;48077;48.104;11.702;2022-08-16T13:59:19;9.27;;;6.07;;
62102;SDS011;48077;48.104;11.702;2022-08-16T14:01:43;7.93;;;4.95;;
62102;SDS011;48077;48.104;11.702;2022-08-16T14:04:07;6.55;;;4.93;;
62102;SDS011;48077;48.104;11.702;2022-08-16T14:06:31;6.45;;;5.35;;
62102;SDS011;48077;48.104;11.702;2022-08-16T14:08:54;8.55;;;5.85;;
62102;SDS011;48077;48.104;11.702;2022-08-16T14:11:17;8.65;;;6.20;;
62102;SDS011;48077;48.104;11.702;2022-08-16T14:13:41;8.70;;;5.05;;
62102;SDS011;48077;48.104;11.702;2022-08-16T14:16:05;6.68;;;5.22;;
62102;SDS011;48077;48.104;11.702;2022-08-16T14:18:29;6.93;;;4.78;;
62102;SDS011;48077;48.104;11.702;2022-08-16T14:20:52;8.25;;;5.18;;
62102;SDS011;48077;48.104;11.702;2022-08-16T14:23:15;5.95;;;4.68;;